Time;durP1;ratioP1;P1;durP2;ratioP2;P2;SDS_P1;SDS_P2;PMS_P1;PMS_P2;Temp;Humidity;BMP_temperature;BMP_pressure;BME280_temperature;BME280_humidity;BME280_pressure;Samples;Min_cycle;Max_cycle;Signal;HPM_P1;HPM_P2
2023/12/29 00:02:06;;;;;;;9.48;4.75;;;;;;;;;;4852313;29;20396;-82
2023/12/29 00:04:32;;;;;;;6.95;4.60;;;;;;;;;;4840282;29;20507;-82
2023/12/29 00:06:58;;;;;;;15.98;4.30;;;;;;;;;;4832344;29;20037;-82
2023/12/29 00:09:24;;;;;;;11.15;4.32;;;;;;;;;;4835184;29;20042;-82
2023/12/29 00:11:51;;;;;;;8.60;3.47;;;;;;;;;;4840323;29;20044;-82
2023/12/29 00:14:17;;;;;;;8.38;3.17;;;;;;;;;;4839281;29;20460;-82
2023/12/29 00:16:46;;;;;;;8.05;4.43;;;;;;;;;;4840603;29;20046;-81
2023/12/29 00:19:12;;;;;;;17.65;5.28;;;;;;;;;;4848318;29;20098;-81
2023/12/29 00:21:38;;;;;;;7.63;3.63;;;;;;;;;;4847149;29;20065;-81
2023/12/29 00:24:05;;;;;;;16.17;4.82;;;;;;;;;;4843738;29;20443;-81
2023/12/29 00:26:31;;;;;;;7.82;4.40;;;;;;;;;;4843345;29;20045;-81
2023/12/29 00:28:57;;;;;;;5.00;3.22;;;;;;;;;;4816097;29;20051;-81
2023/12/29 00:31:23;;;;;;;4.82;2.90;;;;;;;;;;4828040;29;20042;-82
2023/12/29 00:33:51;;;;;;;11.25;2.88;;;;;;;;;;4830332;29;20050;-81
2023/12/29 00:36:18;;;;;;;14.63;5.68;;;;;;;;;;4825826;29;20106;-82
2023/12/29 00:38:44;;;;;;;9.88;4.03;;;;;;;;;;4833819;29;20061;-81
2023/12/29 00:41:10;;;;;;;9.95;3.13;;;;;;;;;;4817067;29;20485;-81
2023/12/29 00:43:36;;;;;;;6.28;3.42;;;;;;;;;;4824390;29;20043;-82
2023/12/29 00:46:03;;;;;;;4.55;2.47;;;;;;;;;;4807655;29;20146;-82
2023/12/29 00:48:29;;;;;;;8.20;3.25;;;;;;;;;;4831892;29;20455;-82
2023/12/29 00:50:55;;;;;;;9.02;3.40;;;;;;;;;;4826678;29;20066;-82
2023/12/29 00:53:21;;;;;;;5.68;2.67;;;;;;;;;;4823752;29;20057;-82
2023/12/29 00:55:47;;;;;;;7.38;3.08;;;;;;;;;;4822631;29;20073;-82
2023/12/29 00:58:14;;;;;;;5.50;3.28;;;;;;;;;;4821681;29;20042;-82
2023/12/29 01:00:40;;;;;;;8.20;3.80;;;;;;;;;;4824141;29;20054;-82
2023/12/29 01:03:06;;;;;;;7.38;2.50;;;;;;;;;;4823271;29;20706;-82
2023/12/29 01:05:32;;;;;;;8.80;2.10;;;;;;;;;;4824032;29;20054;-82
2023/12/29 01:07:58;;;;;;;8.35;3.30;;;;;;;;;;4823629;29;20105;-82
2023/12/29 01:10:24;;;;;;;7.53;2.85;;;;;;;;;;4822203;29;20129;-82
2023/12/29 01:12:50;;;;;;;4.60;2.20;;;;;;;;;;4822534;29;20053;-82
2023/12/29 01:15:16;;;;;;;5.00;2.42;;;;;;;;;;4823334;29;20050;-82
2023/12/29 01:17:42;;;;;;;4.35;2.42;;;;;;;;;;4824450;29;20520;-82
2023/12/29 01:20:08;;;;;;;6.18;2.03;;;;;;;;;;4818106;29;20055;-81
2023/12/29 01:22:34;;;;;;;7.28;3.13;;;;;;;;;;4802758;29;20047;-82
2023/12/29 01:25:03;;;;;;;6.80;3.75;;;;;;;;;;4815341;29;20050;-82
2023/12/29 01:27:30;;;;;;;6.63;3.15;;;;;;;;;;4825194;29;20039;-81
2023/12/29 01:29:56;;;;;;;9.18;4.05;;;;;;;;;;4826666;29;20045;-82
2023/12/29 01:32:22;;;;;;;5.82;2.53;;;;;;;;;;4823005;29;20046;-82
2023/12/29 01:34:48;;;;;;;20.10;3.45;;;;;;;;;;4811277;29;20065;-81
2023/12/29 01:37:14;;;;;;;7.03;3.47;;;;;;;;;;4824710;29;20042;-81
2023/12/29 01:39:40;;;;;;;4.43;2.47;;;;;;;;;;4826386;29;20054;-80
2023/12/29 01:42:06;;;;;;;11.93;3.78;;;;;;;;;;4830900;29;20488;-82
2023/12/29 01:44:32;;;;;;;7.85;3.72;;;;;;;;;;4830624;29;20054;-81
2023/12/29 01:47:02;;;;;;;11.80;2.97;;;;;;;;;;4822720;29;20039;-82
2023/12/29 01:49:28;;;;;;;9.02;3.22;;;;;;;;;;4823095;29;20106;-81
2023/12/29 01:51:58;;;;;;;5.80;3.03;;;;;;;;;;4829337;29;20043;-82
2023/12/29 01:54:29;;;;;;;4.05;2.42;;;;;;;;;;4823876;29;20058;-82
2023/12/29 01:56:57;;;;;;;6.78;2.60;;;;;;;;;;4822446;29;20419;-82
2023/12/29 01:59:25;;;;;;;6.95;3.00;;;;;;;;;;4823122;29;20125;-82
2023/12/29 02:01:51;;;;;;;5.50;2.95;;;;;;;;;;4822412;29;20042;-83
2023/12/29 02:04:18;;;;;;;3.58;2.75;;;;;;;;;;4806755;29;20062;-82
2023/12/29 02:06:44;;;;;;;5.43;2.83;;;;;;;;;;4822899;29;20043;-82
2023/12/29 02:09:10;;;;;;;12.30;3.90;;;;;;;;;;4815299;29;20122;-82
2023/12/29 02:11:36;;;;;;;3.95;3.00;;;;;;;;;;4799681;29;20035;-83
2023/12/29 02:14:02;;;;;;;8.70;4.03;;;;;;;;;;4822831;29;20054;-82
2023/12/29 02:16:34;;;;;;;8.48;3.17;;;;;;;;;;4820249;29;20042;-82
2023/12/29 02:19:01;;;;;;;9.15;4.18;;;;;;;;;;4826605;29;20054;-83
2023/12/29 02:21:27;;;;;;;4.80;3.00;;;;;;;;;;4815198;29;20041;-82
2023/12/29 02:23:53;;;;;;;7.53;3.10;;;;;;;;;;4822289;29;20125;-82
2023/12/29 02:26:21;;;;;;;7.32;3.58;;;;;;;;;;4812361;29;20125;-82
2023/12/29 02:28:51;;;;;;;3.33;1.65;;;;;;;;;;4827042;29;20047;-82
2023/12/29 02:31:20;;;;;;;5.65;2.95;;;;;;;;;;4819204;29;20069;-82
2023/12/29 02:33:46;;;;;;;4.20;2.33;;;;;;;;;;4822403;29;20054;-82
2023/12/29 02:36:13;;;;;;;4.95;3.00;;;;;;;;;;4824922;29;20106;-83
2023/12/29 02:38:39;;;;;;;12.90;4.20;;;;;;;;;;4822993;29;20423;-83
2023/12/29 02:41:05;;;;;;;10.05;4.40;;;;;;;;;;4821470;29;20091;-82
2023/12/29 02:43:34;;;;;;;5.95;3.67;;;;;;;;;;4822754;29;20089;-82
2023/12/29 02:46:00;;;;;;;5.70;3.25;;;;;;;;;;4813536;29;20095;-82
2023/12/29 02:48:26;;;;;;;4.07;2.70;;;;;;;;;;4822285;29;20064;-82
2023/12/29 02:50:52;;;;;;;5.18;1.75;;;;;;;;;;4804870;29;20063;-82
2023/12/29 02:53:18;;;;;;;5.97;2.65;;;;;;;;;;4821256;29;20088;-82
2023/12/29 02:55:44;;;;;;;4.55;2.13;;;;;;;;;;4821412;29;20125;-82
2023/12/29 02:58:10;;;;;;;5.68;3.65;;;;;;;;;;4821693;29;20511;-81
2023/12/29 03:00:36;;;;;;;10.55;3.30;;;;;;;;;;4834838;29;20054;-81
2023/12/29 03:03:02;;;;;;;2.65;1.80;;;;;;;;;;4826376;29;20046;-82
2023/12/29 03:05:28;;;;;;;5.32;2.28;;;;;;;;;;4824230;29;20039;-81
2023/12/29 03:07:54;;;;;;;5.75;2.60;;;;;;;;;;4814711;29;20078;-81
2023/12/29 03:10:20;;;;;;;6.80;3.45;;;;;;;;;;4830608;29;20437;-81
2023/12/29 03:12:46;;;;;;;5.32;2.08;;;;;;;;;;4810212;29;20054;-81
2023/12/29 03:15:12;;;;;;;9.32;2.67;;;;;;;;;;4822532;29;20062;-81
2023/12/29 03:17:38;;;;;;;11.95;2.88;;;;;;;;;;4827645;29;20046;-81
2023/12/29 03:20:04;;;;;;;2.33;1.73;;;;;;;;;;4808342;29;20050;-82
2023/12/29 03:22:30;;;;;;;5.35;3.13;;;;;;;;;;4818328;29;20065;-81
2023/12/29 03:24:56;;;;;;;4.70;2.13;;;;;;;;;;4826084;29;20664;-82
2023/12/29 03:27:22;;;;;;;6.05;2.65;;;;;;;;;;4823007;29;20034;-81
2023/12/29 03:29:48;;;;;;;8.55;3.78;;;;;;;;;;4805173;29;20401;-82
2023/12/29 03:32:15;;;;;;;6.93;3.28;;;;;;;;;;4802115;29;20042;-81
2023/12/29 03:34:41;;;;;;;5.43;3.15;;;;;;;;;;4823506;29;20050;-82
2023/12/29 03:37:07;;;;;;;5.55;2.83;;;;;;;;;;4821291;29;20046;-81
2023/12/29 03:39:35;;;;;;;3.08;2.03;;;;;;;;;;4830479;29;20042;-82
2023/12/29 03:42:01;;;;;;;3.22;1.98;;;;;;;;;;4822428;29;20066;-82
2023/12/29 03:44:27;;;;;;;8.48;2.60;;;;;;;;;;4822844;29;20038;-82
2023/12/29 03:46:53;;;;;;;9.60;3.03;;;;;;;;;;4821641;29;20397;-82
2023/12/29 03:49:22;;;;;;;8.25;4.32;;;;;;;;;;4804760;29;20054;-81
2023/12/29 03:51:48;;;;;;;10.38;3.60;;;;;;;;;;4822169;29;20051;-81
2023/12/29 03:54:14;;;;;;;6.47;3.28;;;;;;;;;;4821099;29;20539;-81
2023/12/29 03:56:40;;;;;;;4.82;2.88;;;;;;;;;;4821211;29;20038;-82
2023/12/29 03:59:06;;;;;;;4.82;2.20;;;;;;;;;;4821040;29;20039;-81
2023/12/29 04:01:34;;;;;;;7.03;2.90;;;;;;;;;;4820585;29;20050;-82
2023/12/29 04:04:00;;;;;;;4.78;2.25;;;;;;;;;;4821375;29;20050;-82
2023/12/29 04:06:26;;;;;;;4.03;2.10;;;;;;;;;;4821238;29;20046;-82
2023/12/29 04:08:52;;;;;;;6.95;2.33;;;;;;;;;;4820957;29;20045;-82
2023/12/29 04:11:18;;;;;;;6.82;2.85;;;;;;;;;;4804509;29;20065;-81
2023/12/29 04:13:44;;;;;;;5.53;3.33;;;;;;;;;;4815979;29;20122;-81
2023/12/29 04:16:10;;;;;;;5.72;2.28;;;;;;;;;;4797671;29;20094;-81
2023/12/29 04:18:36;;;;;;;6.18;3.72;;;;;;;;;;4808078;29;20509;-81
2023/12/29 04:21:02;;;;;;;4.20;2.53;;;;;;;;;;4804206;29;20051;-81
2023/12/29 04:23:28;;;;;;;7.07;2.20;;;;;;;;;;4821392;29;20034;-81
2023/12/29 04:25:54;;;;;;;3.95;2.03;;;;;;;;;;4820576;29;20042;-81
2023/12/29 04:28:20;;;;;;;4.40;2.10;;;;;;;;;;4821250;29;20042;-81
2023/12/29 04:30:46;;;;;;;4.95;2.50;;;;;;;;;;4810294;29;20042;-82
2023/12/29 04:33:12;;;;;;;3.50;2.28;;;;;;;;;;4821928;29;20053;-82
2023/12/29 04:35:38;;;;;;;4.13;1.73;;;;;;;;;;4820186;29;20047;-82
2023/12/29 04:38:06;;;;;;;4.78;1.30;;;;;;;;;;4805192;29;20157;-82
2023/12/29 04:40:32;;;;;;;7.97;2.85;;;;;;;;;;4811706;29;20062;-82
2023/12/29 04:42:58;;;;;;;5.07;2.72;;;;;;;;;;4820896;29;20034;-82
2023/12/29 04:45:24;;;;;;;3.90;2.20;;;;;;;;;;4804897;29;20079;-82
2023/12/29 04:47:50;;;;;;;4.88;2.28;;;;;;;;;;4820819;29;20065;-82
2023/12/29 04:50:16;;;;;;;5.45;3.45;;;;;;;;;;4807223;29;20065;-82
2023/12/29 04:52:42;;;;;;;4.43;2.75;;;;;;;;;;4817972;29;20069;-82
2023/12/29 04:55:08;;;;;;;5.97;2.90;;;;;;;;;;4805334;29;20050;-82
2023/12/29 04:57:34;;;;;;;5.43;2.13;;;;;;;;;;4820551;29;20059;-82
2023/12/29 05:00:01;;;;;;;5.78;2.53;;;;;;;;;;4804740;29;20409;-81
2023/12/29 05:02:27;;;;;;;9.27;3.67;;;;;;;;;;4818428;29;20768;-81
2023/12/29 05:04:53;;;;;;;2.65;1.90;;;;;;;;;;4821816;29;20046;-81
2023/12/29 05:07:19;;;;;;;3.30;2.67;;;;;;;;;;4822689;29;20035;-81
2023/12/29 05:09:45;;;;;;;4.65;2.97;;;;;;;;;;4824484;29;20386;-82
2023/12/29 05:12:11;;;;;;;5.03;2.05;;;;;;;;;;4822970;29;20050;-82
2023/12/29 05:14:37;;;;;;;7.68;2.38;;;;;;;;;;4818053;29;20047;-82
2023/12/29 05:17:03;;;;;;;7.10;2.20;;;;;;;;;;4823293;29;20058;-81
2023/12/29 05:19:29;;;;;;;4.05;2.42;;;;;;;;;;4826019;29;20125;-82
2023/12/29 05:21:55;;;;;;;4.68;1.88;;;;;;;;;;4836639;29;20044;-81
2023/12/29 05:24:21;;;;;;;4.03;1.90;;;;;;;;;;4827526;29;20050;-81
2023/12/29 05:26:47;;;;;;;9.82;4.28;;;;;;;;;;4822818;29;20034;-81
2023/12/29 05:29:13;;;;;;;2.88;2.03;;;;;;;;;;4823617;29;20054;-81
2023/12/29 05:31:39;;;;;;;4.65;2.13;;;;;;;;;;4818429;29;20065;-81
2023/12/29 05:34:05;;;;;;;6.95;3.42;;;;;;;;;;4823600;29;20054;-81
2023/12/29 05:36:35;;;;;;;7.55;3.22;;;;;;;;;;4797272;29;20142;-81
2023/12/29 05:39:01;;;;;;;8.00;3.30;;;;;;;;;;4806472;29;20065;-81
2023/12/29 05:41:27;;;;;;;6.10;2.65;;;;;;;;;;4824519;29;20050;-81
2023/12/29 05:43:53;;;;;;;5.82;3.13;;;;;;;;;;4823235;29;20099;-81
2023/12/29 05:46:19;;;;;;;7.03;2.72;;;;;;;;;;4828584;29;20090;-81
2023/12/29 05:48:45;;;;;;;4.70;2.50;;;;;;;;;;4829956;29;20054;-81
2023/12/29 05:51:11;;;;;;;5.80;2.92;;;;;;;;;;4817703;29;20054;-81
2023/12/29 05:53:37;;;;;;;4.85;2.63;;;;;;;;;;4830497;29;20107;-82
2023/12/29 05:56:03;;;;;;;6.07;4.30;;;;;;;;;;4821928;29;20045;-81
2023/12/29 05:58:29;;;;;;;6.65;2.92;;;;;;;;;;4823025;29;20046;-81
2023/12/29 06:00:56;;;;;;;7.50;4.13;;;;;;;;;;4822356;29;20053;-81
2023/12/29 06:03:22;;;;;;;6.20;3.08;;;;;;;;;;4823014;29;20071;-81
2023/12/29 06:05:48;;;;;;;12.23;4.07;;;;;;;;;;4822266;29;20537;-82
2023/12/29 06:08:14;;;;;;;8.27;4.22;;;;;;;;;;4826091;29;20073;-81
2023/12/29 06:10:40;;;;;;;6.70;3.45;;;;;;;;;;4822111;29;20050;-81
2023/12/29 06:13:06;;;;;;;4.10;2.85;;;;;;;;;;4824421;29;20091;-82
2023/12/29 06:15:32;;;;;;;12.05;3.30;;;;;;;;;;4822770;29;20065;-82
2023/12/29 06:17:58;;;;;;;9.68;2.75;;;;;;;;;;4821661;29;20046;-81
2023/12/29 06:20:25;;;;;;;6.00;2.33;;;;;;;;;;4827450;29;20054;-81
2023/12/29 06:22:51;;;;;;;8.73;3.55;;;;;;;;;;4822478;29;20050;-81
2023/12/29 06:25:18;;;;;;;13.20;2.80;;;;;;;;;;4822060;29;20866;-81
2023/12/29 06:27:44;;;;;;;7.03;2.13;;;;;;;;;;4821923;29;20042;-81
2023/12/29 06:30:11;;;;;;;4.40;3.40;;;;;;;;;;4824928;29;20046;-82
2023/12/29 06:32:37;;;;;;;5.30;3.03;;;;;;;;;;4823110;29;20042;-81
2023/12/29 06:35:03;;;;;;;7.05;4.00;;;;;;;;;;4830117;29;20050;-81
2023/12/29 06:37:29;;;;;;;5.80;3.30;;;;;;;;;;4824108;29;20042;-81
2023/12/29 06:39:55;;;;;;;5.10;3.47;;;;;;;;;;4822013;29;20068;-80
2023/12/29 06:42:22;;;;;;;5.95;3.65;;;;;;;;;;4806284;29;20050;-80
2023/12/29 06:44:48;;;;;;;6.40;2.58;;;;;;;;;;4823712;29;20050;-80
2023/12/29 06:47:14;;;;;;;3.75;2.97;;;;;;;;;;4826777;29;20047;-81
2023/12/29 06:49:41;;;;;;;6.97;3.45;;;;;;;;;;4829618;29;20069;-80
2023/12/29 06:52:07;;;;;;;6.53;3.00;;;;;;;;;;4821731;29;20538;-81
2023/12/29 06:54:34;;;;;;;7.53;4.10;;;;;;;;;;4821672;29;20480;-80
2023/12/29 06:57:00;;;;;;;6.72;3.42;;;;;;;;;;4821608;29;20039;-81
2023/12/29 06:59:26;;;;;;;10.00;3.47;;;;;;;;;;4826548;29;20053;-80
2023/12/29 07:01:52;;;;;;;10.35;4.93;;;;;;;;;;4826581;29;20046;-81
2023/12/29 07:04:18;;;;;;;12.23;4.53;;;;;;;;;;4815228;29;20053;-81
2023/12/29 07:06:44;;;;;;;8.55;3.88;;;;;;;;;;4820903;29;20706;-81
2023/12/29 07:09:10;;;;;;;10.23;2.92;;;;;;;;;;4821885;29;20058;-81
2023/12/29 07:11:36;;;;;;;8.23;3.75;;;;;;;;;;4814808;29;20054;-80
2023/12/29 07:14:03;;;;;;;8.40;4.65;;;;;;;;;;4814878;29;20576;-81
2023/12/29 07:16:29;;;;;;;12.80;3.22;;;;;;;;;;4820454;29;20039;-80
2023/12/29 07:18:55;;;;;;;4.65;1.98;;;;;;;;;;4821329;29;20046;-80
2023/12/29 07:21:21;;;;;;;5.03;1.95;;;;;;;;;;4817944;29;20099;-80
2023/12/29 07:23:47;;;;;;;8.73;2.55;;;;;;;;;;4819237;29;20167;-81
2023/12/29 07:26:13;;;;;;;8.93;3.60;;;;;;;;;;4823927;29;20097;-81
2023/12/29 07:28:39;;;;;;;3.25;1.83;;;;;;;;;;4805909;29;20050;-81
2023/12/29 07:31:05;;;;;;;8.50;3.08;;;;;;;;;;4822454;29;20454;-82
2023/12/29 07:33:31;;;;;;;2.72;1.83;;;;;;;;;;4816160;29;20144;-81
2023/12/29 07:35:57;;;;;;;3.40;1.60;;;;;;;;;;4820963;29;20039;-82
2023/12/29 07:38:24;;;;;;;4.25;2.03;;;;;;;;;;4803501;29;20053;-82
2023/12/29 07:40:50;;;;;;;2.25;1.55;;;;;;;;;;4821135;29;20043;-81
2023/12/29 07:43:16;;;;;;;3.08;1.83;;;;;;;;;;4805434;29;20488;-81
2023/12/29 07:45:43;;;;;;;4.22;1.27;;;;;;;;;;4821691;29;20106;-81
2023/12/29 07:48:09;;;;;;;4.93;1.77;;;;;;;;;;4822038;29;20049;-81
2023/12/29 07:50:36;;;;;;;4.28;1.35;;;;;;;;;;4821527;29;20062;-80
2023/12/29 07:53:03;;;;;;;0.98;0.85;;;;;;;;;;4819045;29;20050;-80
2023/12/29 07:55:29;;;;;;;1.00;0.50;;;;;;;;;;4819977;29;20125;-80
2023/12/29 07:57:55;;;;;;;1.95;1.10;;;;;;;;;;4821450;29;20042;-80
2023/12/29 08:00:22;;;;;;;4.40;1.85;;;;;;;;;;4821621;29;20054;-81
2023/12/29 08:02:49;;;;;;;4.00;2.55;;;;;;;;;;4822412;29;20129;-79
2023/12/29 08:05:18;;;;;;;5.75;2.08;;;;;;;;;;4821371;29;20481;-79
2023/12/29 08:07:44;;;;;;;5.15;2.47;;;;;;;;;;4822594;29;20042;-80
2023/12/29 08:10:10;;;;;;;10.95;2.60;;;;;;;;;;4820140;29;20054;-81
2023/12/29 08:12:36;;;;;;;3.78;1.85;;;;;;;;;;4814340;29;20038;-79
2023/12/29 08:15:02;;;;;;;3.33;1.85;;;;;;;;;;4821664;29;20107;-80
2023/12/29 08:17:29;;;;;;;3.63;1.33;;;;;;;;;;4820807;29;20466;-80
2023/12/29 08:19:55;;;;;;;3.97;1.73;;;;;;;;;;4820787;29;20065;-80
2023/12/29 08:22:21;;;;;;;4.03;1.92;;;;;;;;;;4810470;29;20131;-80
2023/12/29 08:24:47;;;;;;;3.50;1.05;;;;;;;;;;4820493;29;20062;-79
2023/12/29 08:27:13;;;;;;;1.48;0.65;;;;;;;;;;4821052;29;20047;-80
2023/12/29 08:29:39;;;;;;;2.28;0.73;;;;;;;;;;4821246;29;20099;-80
2023/12/29 08:32:06;;;;;;;1.80;1.08;;;;;;;;;;4821261;29;20133;-79
2023/12/29 08:34:32;;;;;;;2.78;0.68;;;;;;;;;;4816234;29;20100;-79
2023/12/29 08:36:58;;;;;;;2.00;0.98;;;;;;;;;;4825259;29;20049;-80
2023/12/29 08:39:24;;;;;;;5.03;2.30;;;;;;;;;;4822023;29;20392;-80
2023/12/29 08:41:50;;;;;;;1.27;0.88;;;;;;;;;;4827224;29;20046;-81
2023/12/29 08:44:17;;;;;;;3.00;1.33;;;;;;;;;;4824449;29;20123;-81
2023/12/29 08:46:43;;;;;;;4.55;1.27;;;;;;;;;;4832694;29;20069;-80
2023/12/29 08:49:09;;;;;;;1.70;1.02;;;;;;;;;;4822707;29;20078;-79
2023/12/29 08:51:35;;;;;;;4.57;1.77;;;;;;;;;;4826743;29;20192;-80
2023/12/29 08:54:01;;;;;;;7.07;2.95;;;;;;;;;;4823628;29;20050;-80
2023/12/29 08:56:29;;;;;;;1.25;0.50;;;;;;;;;;4824210;29;20048;-80
2023/12/29 08:58:55;;;;;;;5.45;1.42;;;;;;;;;;4809158;29;20042;-80
2023/12/29 09:01:21;;;;;;;3.22;1.50;;;;;;;;;;4833613;29;20374;-80
2023/12/29 09:03:47;;;;;;;3.53;1.70;;;;;;;;;;4824525;29;20088;-80
2023/12/29 09:06:13;;;;;;;5.78;2.53;;;;;;;;;;4826548;29;20074;-80
2023/12/29 09:08:40;;;;;;;3.30;1.63;;;;;;;;;;4801742;29;20050;-80
2023/12/29 09:11:06;;;;;;;4.45;1.98;;;;;;;;;;4823335;29;20126;-80
2023/12/29 09:13:32;;;;;;;1.73;1.10;;;;;;;;;;4822008;29;20059;-80
2023/12/29 09:15:59;;;;;;;4.43;1.92;;;;;;;;;;4801273;29;20053;-80
2023/12/29 09:18:25;;;;;;;5.45;2.45;;;;;;;;;;4823725;29;20161;-80
2023/12/29 09:20:51;;;;;;;5.13;2.00;;;;;;;;;;4826693;29;20046;-81
2023/12/29 09:23:17;;;;;;;1.58;1.27;;;;;;;;;;4825768;29;20038;-80
2023/12/29 09:25:43;;;;;;;2.13;1.00;;;;;;;;;;4823004;29;20041;-81
2023/12/29 09:28:09;;;;;;;1.63;0.90;;;;;;;;;;4823262;29;20034;-81
2023/12/29 09:30:35;;;;;;;1.17;0.68;;;;;;;;;;4824253;29;20492;-80
2023/12/29 09:33:01;;;;;;;2.38;1.00;;;;;;;;;;4824451;29;20045;-80
2023/12/29 09:35:27;;;;;;;1.30;0.98;;;;;;;;;;4824837;29;20051;-80
2023/12/29 09:37:53;;;;;;;2.47;1.30;;;;;;;;;;4817704;29;20068;-80
2023/12/29 09:40:20;;;;;;;3.22;0.95;;;;;;;;;;4823328;29;20101;-80
2023/12/29 09:42:46;;;;;;;4.53;1.55;;;;;;;;;;4826904;29;20079;-79
2023/12/29 09:45:13;;;;;;;5.13;1.05;;;;;;;;;;4827345;29;20459;-81
2023/12/29 09:47:40;;;;;;;2.17;0.93;;;;;;;;;;4809064;29;20410;-80
2023/12/29 09:50:07;;;;;;;1.00;0.50;;;;;;;;;;4822833;29;20058;-79
2023/12/29 09:52:34;;;;;;;1.98;0.57;;;;;;;;;;4818415;29;20030;-80
2023/12/29 09:55:00;;;;;;;7.28;0.73;;;;;;;;;;4820145;29;20050;-81
2023/12/29 09:57:26;;;;;;;3.63;1.55;;;;;;;;;;4822599;29;20485;-80
2023/12/29 09:59:54;;;;;;;2.65;1.60;;;;;;;;;;4822873;29;20054;-81
2023/12/29 10:02:24;;;;;;;5.50;2.65;;;;;;;;;;4822512;29;20393;-80
2023/12/29 10:04:50;;;;;;;2.65;1.33;;;;;;;;;;4826233;29;20125;-81
2023/12/29 10:07:20;;;;;;;1.00;0.90;;;;;;;;;;4822643;29;20137;-80
2023/12/29 10:09:48;;;;;;;2.35;1.33;;;;;;;;;;4818783;29;20096;-80
2023/12/29 10:12:15;;;;;;;7.32;2.03;;;;;;;;;;4828612;29;20073;-81
2023/12/29 10:14:47;;;;;;;2.28;1.48;;;;;;;;;;4799880;29;20046;-80
2023/12/29 10:17:13;;;;;;;;;;;;;;;;;;4822638;29;20117;-80
2023/12/29 10:19:44;;;;;;;1.10;0.75;;;;;;;;;;4822460;29;20011;-81
2023/12/29 10:22:22;;;;;;;2.90;1.67;;;;;;;;;;4821900;29;20046;-81
2023/12/29 10:24:49;;;;;;;1.45;0.57;;;;;;;;;;4822326;29;20057;-81
2023/12/29 10:27:15;;;;;;;2.50;1.48;;;;;;;;;;4822438;29;20116;-81
2023/12/29 10:29:41;;;;;;;2.17;1.13;;;;;;;;;;4813331;29;20079;-81
2023/12/29 10:32:07;;;;;;;2.42;1.58;;;;;;;;;;4821957;29;20166;-81
2023/12/29 10:34:33;;;;;;;1.50;1.10;;;;;;;;;;4822178;29;20070;-81
2023/12/29 10:37:03;;;;;;;4.05;1.08;;;;;;;;;;4821567;29;20115;-81
2023/12/29 10:39:29;;;;;;;2.58;1.85;;;;;;;;;;4825831;29;20043;-81
2023/12/29 10:42:05;;;;;;;2.80;1.77;;;;;;;;;;4821065;29;20050;-81
2023/12/29 10:44:31;;;;;;;3.95;2.97;;;;;;;;;;4806632;29;20059;-81
2023/12/29 10:46:57;;;;;;;15.68;7.85;;;;;;;;;;4823781;29;20125;-81
2023/12/29 10:49:23;;;;;;;8.60;3.70;;;;;;;;;;4821767;29;20095;-81
2023/12/29 10:51:49;;;;;;;3.10;1.17;;;;;;;;;;4821305;29;20050;-81
2023/12/29 10:54:23;;;;;;;2.35;0.82;;;;;;;;;;4821871;29;20053;-81
2023/12/29 10:57:01;;;;;;;0.90;0.60;;;;;;;;;;4820961;29;20112;-80
2023/12/29 10:59:27;;;;;;;1.90;0.88;;;;;;;;;;4816336;29;20051;-80
2023/12/29 11:01:53;;;;;;;0.98;0.45;;;;;;;;;;4801080;29;20429;-80
2023/12/29 11:04:22;;;;;;;1.30;0.52;;;;;;;;;;4821843;29;20069;-80
2023/12/29 11:06:50;;;;;;;0.98;0.60;;;;;;;;;;4822479;29;20485;-81
2023/12/29 11:09:28;;;;;;;2.55;1.33;;;;;;;;;;4821837;29;20049;-80
2023/12/29 11:11:56;;;;;;;2.95;1.30;;;;;;;;;;4823018;29;20046;-81
2023/12/29 11:14:23;;;;;;;4.45;2.85;;;;;;;;;;4812295;29;20042;-81
2023/12/29 11:16:49;;;;;;;2.20;1.38;;;;;;;;;;4826426;29;20052;-81
2023/12/29 11:19:15;;;;;;;3.58;1.83;;;;;;;;;;4807209;29;20489;-80
2023/12/29 11:21:42;;;;;;;2.97;0.93;;;;;;;;;;4822122;29;20088;-81
2023/12/29 11:24:08;;;;;;;1.85;1.10;;;;;;;;;;4820786;29;20078;-80
2023/12/29 11:26:34;;;;;;;2.20;1.33;;;;;;;;;;4821101;29;20114;-80
2023/12/29 11:29:04;;;;;;;2.05;1.15;;;;;;;;;;4821832;29;20047;-81
2023/12/29 11:31:30;;;;;;;2.53;1.25;;;;;;;;;;4811228;29;20057;-81
2023/12/29 11:34:06;;;;;;;3.13;1.70;;;;;;;;;;4821392;29;20493;-81
2023/12/29 11:36:35;;;;;;;4.18;2.47;;;;;;;;;;4821962;29;20259;-81
2023/12/29 11:39:15;;;;;;;3.45;2.00;;;;;;;;;;4821217;29;20117;-81
2023/12/29 11:41:51;;;;;;;4.13;1.60;;;;;;;;;;4820222;29;20141;-81
2023/12/29 11:44:27;;;;;;;1.92;1.13;;;;;;;;;;4816307;29;20043;-80
2023/12/29 11:46:53;;;;;;;2.08;1.13;;;;;;;;;;4821677;29;20042;-81
2023/12/29 11:49:20;;;;;;;0.68;0.43;;;;;;;;;;4805767;29;20042;-81
2023/12/29 11:51:50;;;;;;;2.35;1.02;;;;;;;;;;4826391;29;20046;-81
2023/12/29 11:54:23;;;;;;;3.13;1.25;;;;;;;;;;4825343;29;20090;-81
2023/12/29 11:56:49;;;;;;;4.03;2.05;;;;;;;;;;4822290;29;20145;-81
2023/12/29 11:59:17;;;;;;;2.75;1.25;;;;;;;;;;4810521;29;20046;-80
2023/12/29 12:01:43;;;;;;;1.95;0.80;;;;;;;;;;4824448;29;20149;-81
2023/12/29 12:04:28;;;;;;;5.18;1.25;;;;;;;;;;4820816;29;20035;-81
2023/12/29 12:06:54;;;;;;;0.77;0.65;;;;;;;;;;4809521;29;20042;-80
2023/12/29 12:09:24;;;;;;;1.35;0.75;;;;;;;;;;4821236;29;20049;-81
2023/12/29 12:11:50;;;;;;;3.58;1.20;;;;;;;;;;4823902;29;20038;-81
2023/12/29 12:14:52;;;;;;;1.40;0.68;;;;;;;;;;4821305;29;20047;-81
2023/12/29 12:17:28;;;;;;;0.32;0.28;;;;;;;;;;4748257;30;20495;-81
2023/12/29 12:19:57;;;;;;;1.90;0.75;;;;;;;;;;4814236;29;20061;-81
2023/12/29 12:22:25;;;;;;;3.22;1.98;;;;;;;;;;4822846;29;20070;-81
2023/12/29 12:25:01;;;;;;;3.30;1.17;;;;;;;;;;4824550;29;20394;-81
2023/12/29 12:27:27;;;;;;;1.55;0.85;;;;;;;;;;4823943;29;20034;-81
2023/12/29 12:29:59;;;;;;;2.47;1.08;;;;;;;;;;4824130;29;20042;-81
2023/12/29 12:32:25;;;;;;;0.73;0.30;;;;;;;;;;4822780;29;20034;-81
2023/12/29 12:34:52;;;;;;;1.40;0.82;;;;;;;;;;4821371;29;20732;-82
2023/12/29 12:37:21;;;;;;;0.95;0.47;;;;;;;;;;4807191;29;20135;-81
2023/12/29 12:39:48;;;;;;;0.75;0.50;;;;;;;;;;4828396;29;20079;-81
2023/12/29 12:42:15;;;;;;;1.58;0.90;;;;;;;;;;4826109;29;20038;-82
2023/12/29 12:44:42;;;;;;;0.77;0.52;;;;;;;;;;4817160;29;20077;-81
2023/12/29 12:47:10;;;;;;;1.80;0.75;;;;;;;;;;4823343;29;20038;-81
2023/12/29 12:49:36;;;;;;;2.63;0.82;;;;;;;;;;4824450;29;20138;-81
2023/12/29 12:52:02;;;;;;;0.82;0.55;;;;;;;;;;4823421;29;20057;-81
2023/12/29 12:54:28;;;;;;;1.42;0.65;;;;;;;;;;4824483;29;20050;-81
2023/12/29 12:56:55;;;;;;;1.77;0.70;;;;;;;;;;4820362;29;20482;-81
2023/12/29 12:59:21;;;;;;;1.65;0.65;;;;;;;;;;4832830;29;20133;-81
2023/12/29 13:01:48;;;;;;;0.88;0.50;;;;;;;;;;4822370;29;20050;-81
2023/12/29 13:04:14;;;;;;;0.77;0.40;;;;;;;;;;4819939;29;20078;-82
2023/12/29 13:06:41;;;;;;;1.20;0.45;;;;;;;;;;4823004;29;20682;-80
2023/12/29 13:09:17;;;;;;;1.67;0.35;;;;;;;;;;4823783;29;20104;-82
2023/12/29 13:11:43;;;;;;;1.40;0.35;;;;;;;;;;4798816;29;20042;-81
2023/12/29 13:14:09;;;;;;;2.38;0.50;;;;;;;;;;4823516;29;20054;-82
2023/12/29 13:16:36;;;;;;;1.30;0.60;;;;;;;;;;4822572;29;20034;-81
2023/12/29 13:19:18;;;;;;;2.13;0.98;;;;;;;;;;4823342;29;20481;-81
2023/12/29 13:21:46;;;;;;;0.60;0.43;;;;;;;;;;4805457;29;20042;-81
2023/12/29 13:24:13;;;;;;;1.15;0.60;;;;;;;;;;4816041;29;20145;-81
2023/12/29 13:26:39;;;;;;;2.25;0.85;;;;;;;;;;4824551;29;20038;-81
2023/12/29 13:29:05;;;;;;;0.75;0.60;;;;;;;;;;4823321;29;20180;-81
2023/12/29 13:31:32;;;;;;;4.60;1.05;;;;;;;;;;4823114;29;20053;-81
2023/12/29 13:34:01;;;;;;;4.05;0.82;;;;;;;;;;4822387;29;20057;-81
2023/12/29 13:36:35;;;;;;;2.67;1.08;;;;;;;;;;4822477;29;20160;-81
2023/12/29 13:39:08;;;;;;;2.70;1.48;;;;;;;;;;4822438;29;20061;-81
2023/12/29 13:41:34;;;;;;;1.67;1.08;;;;;;;;;;4822531;29;20065;-82
2023/12/29 13:44:01;;;;;;;4.10;1.48;;;;;;;;;;4802338;29;20042;-81
2023/12/29 13:46:27;;;;;;;2.80;1.17;;;;;;;;;;4817033;29;20038;-82
2023/12/29 13:48:54;;;;;;;2.65;1.23;;;;;;;;;;4822704;29;20050;-81
2023/12/29 13:51:26;;;;;;;2.15;0.80;;;;;;;;;;4813471;29;20421;-81
2023/12/29 13:53:59;;;;;;;2.42;0.80;;;;;;;;;;4823989;29;20086;-81
2023/12/29 13:56:25;;;;;;;6.10;1.50;;;;;;;;;;4816850;29;20042;-81
2023/12/29 13:58:52;;;;;;;1.75;0.73;;;;;;;;;;4808695;29;20051;-81
2023/12/29 14:01:18;;;;;;;1.38;0.65;;;;;;;;;;4822477;29;20046;-81
2023/12/29 14:03:51;;;;;;;1.70;0.82;;;;;;;;;;4822439;29;20053;-81
2023/12/29 14:06:21;;;;;;;5.18;2.25;;;;;;;;;;4816973;29;20042;-81
2023/12/29 14:08:48;;;;;;;4.72;1.20;;;;;;;;;;4802320;29;20047;-81
2023/12/29 14:11:14;;;;;;;2.47;1.45;;;;;;;;;;4804758;29;20059;-81
2023/12/29 14:13:47;;;;;;;3.40;1.85;;;;;;;;;;4820918;29;20078;-81
2023/12/29 14:16:14;;;;;;;10.80;4.68;;;;;;;;;;4825315;29;20049;-81
2023/12/29 14:18:46;;;;;;;5.20;2.47;;;;;;;;;;4821955;29;20046;-81
2023/12/29 14:21:24;;;;;;;5.20;2.55;;;;;;;;;;4821465;29;20103;-81
2023/12/29 14:24:17;;;;;;;3.00;1.58;;;;;;;;;;4822964;29;20051;-82
2023/12/29 14:26:46;;;;;;;3.78;1.35;;;;;;;;;;4811473;29;20062;-81
2023/12/29 14:29:13;;;;;;;8.10;4.38;;;;;;;;;;4823298;29;20038;-81
2023/12/29 14:31:42;;;;;;;11.43;4.03;;;;;;;;;;4821770;29;20391;-80
2023/12/29 14:34:09;;;;;;;6.88;2.53;;;;;;;;;;4822215;29;20093;-81
2023/12/29 14:36:36;;;;;;;4.28;1.77;;;;;;;;;;4819112;29;20046;-81
2023/12/29 14:39:03;;;;;;;3.65;1.95;;;;;;;;;;4804766;29;20062;-81
2023/12/29 14:41:29;;;;;;;4.18;2.15;;;;;;;;;;4821317;29;20038;-81
2023/12/29 14:43:55;;;;;;;1.48;0.98;;;;;;;;;;4821837;29;20193;-81